Cincinnati, Ohio
Traffic Map
Current Weather Conditions
Cincinnati, Ohio
Overcast
Overcast
25°
Feels Like: 16°
Wind Chill: 16° Ceiling: 4300
Heat Index: 25° Visibility: 10mi
Dew Point: 15° Wind: 8mph
Humidity: 66% Direction: 230° (SW)
Pressure: 30.58in Gusts: 0mph
Raw Report DataKLUK 100153Z 23007KT 10SM OVC043 M04/M09 A3058 RMK AO2 SLP362 T10391094
Traffic Incident Summary
Active as of:
Severity:
Category:
InformationThere was an issue retrieving the traffic information for this location. Please try a different location or try again shortly.
Advertisements
Track Severe Weather on mobile